Cut Bank Municipal Airport
KCTB : now visible

Airfield :











YOU CAN JOIN US ON...

 
LOGIN :

Register | Disclaimer

   EN    FR    IT 

 









Legend :    VFR   Marginal VFR   IFR   Intensive IFR   Very Intensive IFR
Visi :
Ceiling :
>= 8 km
>= 3000ft
5 to 8 km
1000 to 3000 ft
1500m to 5 km
500 to 1000 ft
800 to 1500m
200 to 500 ft
< 800m
< 200 ft
Symbols :   Thunderstorms  Fog  Heavy snow  Heavy precipitations  Wind > 20 kt






- Airport Elevation : 3854 ft


KCTB - Cut Bank Municipal

CURRENT METAR :
  • 170756Z AUTO 25019KT 10SM CLR 01/M08 A3001 RMK AO2 PK WND 26029/0728 SLP183 T00111078

EXPIRED METARs :
  • 170656Z AUTO 25019KT 10SM SCT100 02/M08 A3003 RMK AO2 PK WND 25031/0633 SLP191 T00171078 400501056
  • 170556Z AUTO 25021G27KT 10SM CLR 01/M08 A3004 RMK AO2 PK WND 26033/0503 SLP195 T00111078 10017 20006 58019

TAF KCTB
Valid from the 17 at 06:00 until the 18 at 06:00 UTC


170553Z 1706/1806 25022G30KT P6SM SCT060 OVC090
FM171800 27025G41KT P6SM SCT050 BKN080
FM172100 29026G43KT P6SM SCT035 OVC050
PROB30 1722/1724 4SM -SHSN BLSN BKN025
FM180100 29020G30KT P6SM SCT040 BKN060
KZLC FIR / North America



MET'MAP, your aeronautical weather chart ! - Copyright ORBIFLY December 2007 - Disclaimer

ORBIFLY MET'MAP TEAM :

Programming & Development : Alexandra Zaïnal
Concept & original design : Baudouin d'Aumeries
Assistance for programming : Marc-Olivier Méhu
Technical & hardware support : Manuel Goepfert

Contact : metmap@orbifly.com




SOURCES & CREDITS :

   NOAA       Earth
Advisory